sensor_id;sensor_type;location;lat;lon;timestamp;P1;durP1;ratioP1;P2;durP2;ratioP2
1358;SDS011;673;48.098;14.422;2022-07-06T00:00:52;2.90;;;2.67;;
1358;SDS011;673;48.098;14.422;2022-07-06T00:03:20;2.53;;;2.33;;
1358;SDS011;673;48.098;14.422;2022-07-06T00:05:47;2.13;;;1.70;;
1358;SDS011;673;48.098;14.422;2022-07-06T00:08:14;1.60;;;1.50;;
1358;SDS011;673;48.098;14.422;2022-07-06T00:10:41;2.23;;;2.10;;
1358;SDS011;673;48.098;14.422;2022-07-06T00:13:08;2.03;;;1.90;;
1358;SDS011;673;48.098;14.422;2022-07-06T00:15:35;3.00;;;2.80;;
1358;SDS011;673;48.098;14.422;2022-07-06T00:18:03;7.23;;;3.57;;
1358;SDS011;673;48.098;14.422;2022-07-06T00:20:31;2.67;;;2.57;;
1358;SDS011;673;48.098;14.422;2022-07-06T00:22:58;2.40;;;2.30;;
1358;SDS011;673;48.098;14.422;2022-07-06T00:25:25;5.37;;;2.67;;
1358;SDS011;673;48.098;14.422;2022-07-06T00:27:52;1.63;;;1.53;;
1358;SDS011;673;48.098;14.422;2022-07-06T00:30:19;2.33;;;2.13;;
1358;SDS011;673;48.098;14.422;2022-07-06T00:32:46;2.23;;;2.03;;
1358;SDS011;673;48.098;14.422;2022-07-06T00:35:13;2.40;;;2.20;;
1358;SDS011;673;48.098;14.422;2022-07-06T00:37:42;3.40;;;2.13;;
1358;SDS011;673;48.098;14.422;2022-07-06T00:40:09;5.40;;;2.53;;
1358;SDS011;673;48.098;14.422;2022-07-06T00:42:40;2.70;;;2.00;;
1358;SDS011;673;48.098;14.422;2022-07-06T00:45:07;2.13;;;2.03;;
1358;SDS011;673;48.098;14.422;2022-07-06T00:47:35;5.27;;;2.00;;
1358;SDS011;673;48.098;14.422;2022-07-06T00:50:03;1.80;;;1.70;;
1358;SDS011;673;48.098;14.422;2022-07-06T00:52:40;2.43;;;2.30;;
1358;SDS011;673;48.098;14.422;2022-07-06T00:55:08;2.40;;;2.00;;
1358;SDS011;673;48.098;14.422;2022-07-06T00:57:36;2.27;;;2.07;;
1358;SDS011;673;48.098;14.422;2022-07-06T01:00:04;2.60;;;2.40;;
1358;SDS011;673;48.098;14.422;2022-07-06T01:02:33;2.60;;;2.40;;
1358;SDS011;673;48.098;14.422;2022-07-06T01:05:01;2.10;;;1.90;;
1358;SDS011;673;48.098;14.422;2022-07-06T01:07:29;2.03;;;1.60;;
1358;SDS011;673;48.098;14.422;2022-07-06T01:09:58;1.57;;;1.47;;
1358;SDS011;673;48.098;14.422;2022-07-06T01:12:25;1.63;;;1.53;;
1358;SDS011;673;48.098;14.422;2022-07-06T01:14:52;2.00;;;1.70;;
1358;SDS011;673;48.098;14.422;2022-07-06T01:17:20;2.10;;;2.00;;
1358;SDS011;673;48.098;14.422;2022-07-06T01:19:48;2.50;;;2.13;;
1358;SDS011;673;48.098;14.422;2022-07-06T01:22:16;2.13;;;2.03;;
1358;SDS011;673;48.098;14.422;2022-07-06T01:24:44;3.03;;;2.83;;
1358;SDS011;673;48.098;14.422;2022-07-06T01:27:11;2.53;;;2.23;;
1358;SDS011;673;48.098;14.422;2022-07-06T01:29:38;2.17;;;1.87;;
1358;SDS011;673;48.098;14.422;2022-07-06T01:32:05;2.03;;;1.63;;
1358;SDS011;673;48.098;14.422;2022-07-06T01:34:32;1.47;;;1.37;;
1358;SDS011;673;48.098;14.422;2022-07-06T01:37:00;2.53;;;2.33;;
1358;SDS011;673;48.098;14.422;2022-07-06T01:39:28;1.80;;;1.70;;
1358;SDS011;673;48.098;14.422;2022-07-06T01:41:55;5.50;;;2.47;;
1358;SDS011;673;48.098;14.422;2022-07-06T01:44:23;3.37;;;3.10;;
1358;SDS011;673;48.098;14.422;2022-07-06T01:46:50;3.50;;;2.20;;
1358;SDS011;673;48.098;14.422;2022-07-06T01:49:17;1.90;;;1.77;;
1358;SDS011;673;48.098;14.422;2022-07-06T01:51:44;3.93;;;2.20;;
1358;SDS011;673;48.098;14.422;2022-07-06T01:54:11;1.57;;;1.47;;
1358;SDS011;673;48.098;14.422;2022-07-06T01:56:39;1.90;;;1.80;;
1358;SDS011;673;48.098;14.422;2022-07-06T01:59:06;2.10;;;1.73;;
1358;SDS011;673;48.098;14.422;2022-07-06T02:01:34;2.27;;;2.17;;
1358;SDS011;673;48.098;14.422;2022-07-06T02:04:01;1.80;;;1.67;;
1358;SDS011;673;48.098;14.422;2022-07-06T02:06:28;2.70;;;1.97;;
1358;SDS011;673;48.098;14.422;2022-07-06T02:08:55;1.43;;;1.33;;
1358;SDS011;673;48.098;14.422;2022-07-06T02:11:23;2.00;;;1.87;;
1358;SDS011;673;48.098;14.422;2022-07-06T02:13:51;1.50;;;1.40;;
1358;SDS011;673;48.098;14.422;2022-07-06T02:16:18;2.07;;;1.87;;
1358;SDS011;673;48.098;14.422;2022-07-06T02:18:45;1.73;;;1.63;;
1358;SDS011;673;48.098;14.422;2022-07-06T02:21:12;2.10;;;2.00;;
1358;SDS011;673;48.098;14.422;2022-07-06T02:23:39;2.03;;;1.87;;
1358;SDS011;673;48.098;14.422;2022-07-06T02:26:06;2.57;;;2.10;;
1358;SDS011;673;48.098;14.422;2022-07-06T02:28:33;3.20;;;1.90;;
1358;SDS011;673;48.098;14.422;2022-07-06T02:31:01;2.43;;;2.30;;
1358;SDS011;673;48.098;14.422;2022-07-06T02:33:28;1.93;;;1.73;;
1358;SDS011;673;48.098;14.422;2022-07-06T02:35:56;1.80;;;1.70;;
1358;SDS011;673;48.098;14.422;2022-07-06T02:38:23;2.50;;;2.30;;
1358;SDS011;673;48.098;14.422;2022-07-06T02:40:50;2.27;;;1.40;;
1358;SDS011;673;48.098;14.422;2022-07-06T02:43:17;2.00;;;1.90;;
1358;SDS011;673;48.098;14.422;2022-07-06T02:45:44;2.20;;;2.07;;
1358;SDS011;673;48.098;14.422;2022-07-06T02:48:12;1.87;;;1.77;;
1358;SDS011;673;48.098;14.422;2022-07-06T02:50:39;2.57;;;2.37;;
1358;SDS011;673;48.098;14.422;2022-07-06T02:53:06;2.17;;;1.97;;
1358;SDS011;673;48.098;14.422;2022-07-06T02:55:34;3.40;;;2.00;;
1358;SDS011;673;48.098;14.422;2022-07-06T02:58:01;2.13;;;2.03;;
1358;SDS011;673;48.098;14.422;2022-07-06T03:00:27;1.73;;;1.63;;
1358;SDS011;673;48.098;14.422;2022-07-06T03:02:54;2.67;;;2.00;;
1358;SDS011;673;48.098;14.422;2022-07-06T03:05:23;1.07;;;1.03;;
1358;SDS011;673;48.098;14.422;2022-07-06T03:07:50;1.80;;;1.70;;
1358;SDS011;673;48.098;14.422;2022-07-06T03:10:17;1.47;;;1.37;;
1358;SDS011;673;48.098;14.422;2022-07-06T03:12:44;1.57;;;1.47;;
1358;SDS011;673;48.098;14.422;2022-07-06T03:15:11;1.90;;;1.80;;
1358;SDS011;673;48.098;14.422;2022-07-06T03:17:38;5.93;;;1.80;;
1358;SDS011;673;48.098;14.422;2022-07-06T03:20:05;7.63;;;2.27;;
1358;SDS011;673;48.098;14.422;2022-07-06T03:22:34;1.87;;;1.30;;
1358;SDS011;673;48.098;14.422;2022-07-06T03:25:01;1.50;;;1.40;;
1358;SDS011;673;48.098;14.422;2022-07-06T03:27:29;4.03;;;1.90;;
1358;SDS011;673;48.098;14.422;2022-07-06T03:29:56;1.97;;;1.77;;
1358;SDS011;673;48.098;14.422;2022-07-06T03:32:23;1.80;;;1.70;;
1358;SDS011;673;48.098;14.422;2022-07-06T03:34:50;1.50;;;1.40;;
1358;SDS011;673;48.098;14.422;2022-07-06T03:37:16;2.17;;;2.07;;
1358;SDS011;673;48.098;14.422;2022-07-06T03:39:45;1.90;;;1.47;;
1358;SDS011;673;48.098;14.422;2022-07-06T03:42:12;2.20;;;2.00;;
1358;SDS011;673;48.098;14.422;2022-07-06T03:44:39;1.83;;;1.70;;
1358;SDS011;673;48.098;14.422;2022-07-06T03:47:06;1.73;;;1.63;;
1358;SDS011;673;48.098;14.422;2022-07-06T03:49:33;1.57;;;1.47;;
1358;SDS011;673;48.098;14.422;2022-07-06T03:52:00;3.07;;;1.40;;
1358;SDS011;673;48.098;14.422;2022-07-06T03:54:27;1.00;;;1.00;;
1358;SDS011;673;48.098;14.422;2022-07-06T03:56:56;1.90;;;1.13;;
1358;SDS011;673;48.098;14.422;2022-07-06T03:59:23;1.27;;;1.17;;
1358;SDS011;673;48.098;14.422;2022-07-06T04:01:49;1.73;;;1.63;;
1358;SDS011;673;48.098;14.422;2022-07-06T04:04:17;1.10;;;1.00;;
1358;SDS011;673;48.098;14.422;2022-07-06T04:06:44;4.20;;;1.30;;
1358;SDS011;673;48.098;14.422;2022-07-06T04:09:12;1.67;;;1.57;;
1358;SDS011;673;48.098;14.422;2022-07-06T04:11:38;2.63;;;1.37;;
1358;SDS011;673;48.098;14.422;2022-07-06T04:14:07;1.50;;;1.40;;
1358;SDS011;673;48.098;14.422;2022-07-06T04:16:34;2.50;;;1.00;;
1358;SDS011;673;48.098;14.422;2022-07-06T04:19:01;2.40;;;1.60;;
1358;SDS011;673;48.098;14.422;2022-07-06T04:21:28;4.50;;;1.87;;
1358;SDS011;673;48.098;14.422;2022-07-06T04:23:55;1.30;;;1.20;;
1358;SDS011;673;48.098;14.422;2022-07-06T04:26:22;1.20;;;1.20;;
1358;SDS011;673;48.098;14.422;2022-07-06T04:28:49;1.30;;;1.20;;
1358;SDS011;673;48.098;14.422;2022-07-06T04:31:17;1.13;;;1.03;;
1358;SDS011;673;48.098;14.422;2022-07-06T04:33:44;3.30;;;1.40;;
1358;SDS011;673;48.098;14.422;2022-07-06T04:36:11;1.97;;;1.87;;
1358;SDS011;673;48.098;14.422;2022-07-06T04:38:38;5.33;;;2.03;;
1358;SDS011;673;48.098;14.422;2022-07-06T04:41:05;2.03;;;1.80;;
1358;SDS011;673;48.098;14.422;2022-07-06T04:43:32;2.93;;;1.33;;
1358;SDS011;673;48.098;14.422;2022-07-06T04:45:59;1.37;;;1.23;;
1358;SDS011;673;48.098;14.422;2022-07-06T04:48:28;1.37;;;1.27;;
1358;SDS011;673;48.098;14.422;2022-07-06T04:50:55;1.30;;;1.20;;
1358;SDS011;673;48.098;14.422;2022-07-06T04:53:22;1.00;;;1.00;;
1358;SDS011;673;48.098;14.422;2022-07-06T04:55:49;1.33;;;1.23;;
1358;SDS011;673;48.098;14.422;2022-07-06T04:58:16;1.10;;;1.07;;
1358;SDS011;673;48.098;14.422;2022-07-06T05:00:44;1.63;;;1.50;;
1358;SDS011;673;48.098;14.422;2022-07-06T05:03:11;1.10;;;1.00;;
1358;SDS011;673;48.098;14.422;2022-07-06T05:05:39;2.17;;;1.20;;
1358;SDS011;673;48.098;14.422;2022-07-06T05:08:06;2.30;;;1.60;;
1358;SDS011;673;48.098;14.422;2022-07-06T05:10:33;1.40;;;1.30;;
1358;SDS011;673;48.098;14.422;2022-07-06T05:13:00;1.10;;;1.00;;
1358;SDS011;673;48.098;14.422;2022-07-06T05:15:27;1.57;;;1.47;;
1358;SDS011;673;48.098;14.422;2022-07-06T05:17:55;1.53;;;1.27;;
1358;SDS011;673;48.098;14.422;2022-07-06T05:20:22;1.10;;;1.10;;
1358;SDS011;673;48.098;14.422;2022-07-06T05:22:50;2.93;;;0.80;;
1358;SDS011;673;48.098;14.422;2022-07-06T05:25:17;1.30;;;1.20;;
1358;SDS011;673;48.098;14.422;2022-07-06T05:27:44;1.13;;;0.83;;
1358;SDS011;673;48.098;14.422;2022-07-06T05:30:11;1.47;;;1.00;;
1358;SDS011;673;48.098;14.422;2022-07-06T05:32:40;1.30;;;1.20;;
1358;SDS011;673;48.098;14.422;2022-07-06T05:35:07;1.80;;;1.00;;
1358;SDS011;673;48.098;14.422;2022-07-06T05:37:34;1.77;;;0.90;;
1358;SDS011;673;48.098;14.422;2022-07-06T05:40:03;1.43;;;1.33;;
1358;SDS011;673;48.098;14.422;2022-07-06T05:42:31;1.93;;;1.20;;
1358;SDS011;673;48.098;14.422;2022-07-06T05:44:57;1.00;;;0.90;;
1358;SDS011;673;48.098;14.422;2022-07-06T05:47:24;0.70;;;0.70;;
1358;SDS011;673;48.098;14.422;2022-07-06T05:50:09;1.00;;;1.00;;
1358;SDS011;673;48.098;14.422;2022-07-06T05:52:39;0.60;;;0.60;;
1358;SDS011;673;48.098;14.422;2022-07-06T05:55:08;0.80;;;0.80;;
1358;SDS011;673;48.098;14.422;2022-07-06T05:57:35;1.10;;;0.80;;
1358;SDS011;673;48.098;14.422;2022-07-06T06:00:03;0.80;;;0.80;;
1358;SDS011;673;48.098;14.422;2022-07-06T06:02:37;1.97;;;0.90;;
1358;SDS011;673;48.098;14.422;2022-07-06T06:05:06;0.90;;;0.90;;
1358;SDS011;673;48.098;14.422;2022-07-06T06:07:34;1.00;;;1.00;;
1358;SDS011;673;48.098;14.422;2022-07-06T06:10:02;1.37;;;1.27;;
1358;SDS011;673;48.098;14.422;2022-07-06T06:12:32;0.90;;;0.80;;
1358;SDS011;673;48.098;14.422;2022-07-06T06:14:59;1.50;;;1.07;;
1358;SDS011;673;48.098;14.422;2022-07-06T06:17:26;1.20;;;1.10;;
1358;SDS011;673;48.098;14.422;2022-07-06T06:19:53;0.97;;;0.90;;
1358;SDS011;673;48.098;14.422;2022-07-06T06:22:20;0.80;;;0.80;;
1358;SDS011;673;48.098;14.422;2022-07-06T06:24:47;0.93;;;0.70;;
1358;SDS011;673;48.098;14.422;2022-07-06T06:27:14;2.40;;;0.77;;
1358;SDS011;673;48.098;14.422;2022-07-06T06:29:43;1.60;;;1.50;;
1358;SDS011;673;48.098;14.422;2022-07-06T06:32:10;2.00;;;0.70;;
1358;SDS011;673;48.098;14.422;2022-07-06T06:34:38;0.80;;;0.80;;
1358;SDS011;673;48.098;14.422;2022-07-06T06:37:05;1.40;;;1.30;;
1358;SDS011;673;48.098;14.422;2022-07-06T06:39:32;0.93;;;0.90;;
1358;SDS011;673;48.098;14.422;2022-07-06T06:41:59;0.60;;;0.60;;
1358;SDS011;673;48.098;14.422;2022-07-06T06:44:26;0.90;;;0.77;;
1358;SDS011;673;48.098;14.422;2022-07-06T06:46:55;0.90;;;0.70;;
1358;SDS011;673;48.098;14.422;2022-07-06T06:49:22;0.97;;;0.80;;
1358;SDS011;673;48.098;14.422;2022-07-06T06:51:49;1.27;;;0.80;;
1358;SDS011;673;48.098;14.422;2022-07-06T06:54:16;0.70;;;0.70;;
1358;SDS011;673;48.098;14.422;2022-07-06T06:56:43;0.63;;;0.63;;
1358;SDS011;673;48.098;14.422;2022-07-06T06:59:10;1.70;;;1.00;;
1358;SDS011;673;48.098;14.422;2022-07-06T07:01:37;1.00;;;0.90;;
1358;SDS011;673;48.098;14.422;2022-07-06T07:04:06;0.70;;;0.70;;
1358;SDS011;673;48.098;14.422;2022-07-06T07:06:33;0.90;;;0.73;;
1358;SDS011;673;48.098;14.422;2022-07-06T07:09:00;0.80;;;0.80;;
1358;SDS011;673;48.098;14.422;2022-07-06T07:11:27;2.30;;;0.80;;
1358;SDS011;673;48.098;14.422;2022-07-06T07:13:54;1.90;;;1.10;;
1358;SDS011;673;48.098;14.422;2022-07-06T07:16:30;1.27;;;0.90;;
1358;SDS011;673;48.098;14.422;2022-07-06T07:18:57;1.53;;;0.80;;
1358;SDS011;673;48.098;14.422;2022-07-06T07:21:25;1.37;;;0.73;;
1358;SDS011;673;48.098;14.422;2022-07-06T07:23:52;3.10;;;0.87;;
1358;SDS011;673;48.098;14.422;2022-07-06T07:26:19;1.33;;;1.03;;
1358;SDS011;673;48.098;14.422;2022-07-06T07:28:46;0.70;;;0.70;;
1358;SDS011;673;48.098;14.422;2022-07-06T07:31:13;1.13;;;1.13;;
1358;SDS011;673;48.098;14.422;2022-07-06T07:33:40;1.00;;;1.00;;
1358;SDS011;673;48.098;14.422;2022-07-06T07:36:07;1.83;;;1.00;;
1358;SDS011;673;48.098;14.422;2022-07-06T07:38:36;1.00;;;1.00;;
1358;SDS011;673;48.098;14.422;2022-07-06T07:41:03;1.20;;;0.93;;
1358;SDS011;673;48.098;14.422;2022-07-06T07:43:31;1.07;;;1.07;;
1358;SDS011;673;48.098;14.422;2022-07-06T07:45:58;1.47;;;0.90;;
1358;SDS011;673;48.098;14.422;2022-07-06T07:48:25;0.80;;;0.80;;
1358;SDS011;673;48.098;14.422;2022-07-06T07:50:52;1.10;;;0.87;;
1358;SDS011;673;48.098;14.422;2022-07-06T07:53:19;1.87;;;1.00;;
1358;SDS011;673;48.098;14.422;2022-07-06T07:55:47;0.87;;;0.87;;
1358;SDS011;673;48.098;14.422;2022-07-06T07:58:14;0.80;;;0.80;;
1358;SDS011;673;48.098;14.422;2022-07-06T08:00:41;1.07;;;0.97;;
1358;SDS011;673;48.098;14.422;2022-07-06T08:03:08;1.40;;;0.97;;
1358;SDS011;673;48.098;14.422;2022-07-06T08:05:36;1.50;;;1.13;;
1358;SDS011;673;48.098;14.422;2022-07-06T08:08:03;0.70;;;0.63;;
1358;SDS011;673;48.098;14.422;2022-07-06T08:10:30;1.20;;;1.10;;
1358;SDS011;673;48.098;14.422;2022-07-06T08:12:59;1.10;;;1.07;;
1358;SDS011;673;48.098;14.422;2022-07-06T08:15:26;0.90;;;0.90;;
1358;SDS011;673;48.098;14.422;2022-07-06T08:17:53;1.30;;;0.90;;
1358;SDS011;673;48.098;14.422;2022-07-06T08:20:20;0.93;;;0.93;;
1358;SDS011;673;48.098;14.422;2022-07-06T08:22:47;0.90;;;0.90;;
1358;SDS011;673;48.098;14.422;2022-07-06T08:25:14;1.17;;;1.10;;
1358;SDS011;673;48.098;14.422;2022-07-06T08:27:42;1.27;;;1.00;;
1358;SDS011;673;48.098;14.422;2022-07-06T08:30:11;1.00;;;1.00;;
1358;SDS011;673;48.098;14.422;2022-07-06T08:32:38;0.80;;;0.80;;
1358;SDS011;673;48.098;14.422;2022-07-06T08:35:06;0.80;;;0.80;;
1358;SDS011;673;48.098;14.422;2022-07-06T08:37:33;2.73;;;0.87;;
1358;SDS011;673;48.098;14.422;2022-07-06T08:40:00;1.00;;;1.00;;
1358;SDS011;673;48.098;14.422;2022-07-06T08:42:29;0.80;;;0.80;;
1358;SDS011;673;48.098;14.422;2022-07-06T08:44:58;1.43;;;1.07;;
1358;SDS011;673;48.098;14.422;2022-07-06T08:47:27;0.80;;;0.80;;
1358;SDS011;673;48.098;14.422;2022-07-06T08:49:54;0.80;;;0.77;;
1358;SDS011;673;48.098;14.422;2022-07-06T08:52:21;0.70;;;0.70;;
1358;SDS011;673;48.098;14.422;2022-07-06T08:54:50;1.20;;;1.17;;
1358;SDS011;673;48.098;14.422;2022-07-06T08:57:17;0.73;;;0.73;;
1358;SDS011;673;48.098;14.422;2022-07-06T08:59:44;1.00;;;1.00;;
1358;SDS011;673;48.098;14.422;2022-07-06T09:02:11;0.90;;;0.70;;
1358;SDS011;673;48.098;14.422;2022-07-06T09:04:41;1.07;;;0.90;;
1358;SDS011;673;48.098;14.422;2022-07-06T09:07:09;0.70;;;0.70;;
1358;SDS011;673;48.098;14.422;2022-07-06T09:09:37;2.80;;;1.00;;
1358;SDS011;673;48.098;14.422;2022-07-06T09:12:07;0.93;;;0.93;;
1358;SDS011;673;48.098;14.422;2022-07-06T09:14:37;1.37;;;1.27;;
1358;SDS011;673;48.098;14.422;2022-07-06T09:17:05;1.33;;;0.80;;
1358;SDS011;673;48.098;14.422;2022-07-06T09:19:33;0.93;;;0.80;;
1358;SDS011;673;48.098;14.422;2022-07-06T09:22:02;1.40;;;0.70;;
1358;SDS011;673;48.098;14.422;2022-07-06T09:24:30;0.87;;;0.87;;
1358;SDS011;673;48.098;14.422;2022-07-06T09:26:58;28.57;;;3.50;;
1358;SDS011;673;48.098;14.422;2022-07-06T09:29:29;1.10;;;0.77;;
1358;SDS011;673;48.098;14.422;2022-07-06T09:31:57;1.17;;;0.70;;
1358;SDS011;673;48.098;14.422;2022-07-06T09:34:25;0.80;;;0.80;;
1358;SDS011;673;48.098;14.422;2022-07-06T09:37:07;0.60;;;0.53;;
1358;SDS011;673;48.098;14.422;2022-07-06T09:39:34;1.20;;;0.87;;
1358;SDS011;673;48.098;14.422;2022-07-06T09:42:02;2.00;;;0.70;;
1358;SDS011;673;48.098;14.422;2022-07-06T09:44:30;0.80;;;0.80;;
1358;SDS011;673;48.098;14.422;2022-07-06T09:47:00;0.80;;;0.80;;
1358;SDS011;673;48.098;14.422;2022-07-06T09:49:27;0.80;;;0.80;;
1358;SDS011;673;48.098;14.422;2022-07-06T09:51:56;0.70;;;0.60;;
1358;SDS011;673;48.098;14.422;2022-07-06T09:54:25;2.30;;;1.40;;
1358;SDS011;673;48.098;14.422;2022-07-06T09:56:53;1.33;;;0.70;;
1358;SDS011;673;48.098;14.422;2022-07-06T09:59:22;0.80;;;0.80;;
1358;SDS011;673;48.098;14.422;2022-07-06T10:01:51;0.70;;;0.70;;
1358;SDS011;673;48.098;14.422;2022-07-06T10:04:20;0.60;;;0.60;;
1358;SDS011;673;48.098;14.422;2022-07-06T10:06:47;0.90;;;0.90;;
1358;SDS011;673;48.098;14.422;2022-07-06T10:09:15;0.73;;;0.73;;
1358;SDS011;673;48.098;14.422;2022-07-06T10:11:47;3.90;;;0.70;;
1358;SDS011;673;48.098;14.422;2022-07-06T10:14:16;0.70;;;0.70;;
1358;SDS011;673;48.098;14.422;2022-07-06T10:16:46;1.20;;;1.10;;
1358;SDS011;673;48.098;14.422;2022-07-06T10:19:15;0.80;;;0.80;;
1358;SDS011;673;48.098;14.422;2022-07-06T10:21:43;0.70;;;0.70;;
1358;SDS011;673;48.098;14.422;2022-07-06T10:24:11;0.90;;;0.90;;
1358;SDS011;673;48.098;14.422;2022-07-06T10:26:38;0.70;;;0.70;;
1358;SDS011;673;48.098;14.422;2022-07-06T10:29:08;0.70;;;0.70;;
1358;SDS011;673;48.098;14.422;2022-07-06T10:31:36;1.67;;;1.00;;
1358;SDS011;673;48.098;14.422;2022-07-06T10:34:07;0.97;;;0.87;;
1358;SDS011;673;48.098;14.422;2022-07-06T10:36:37;0.80;;;0.70;;
1358;SDS011;673;48.098;14.422;2022-07-06T10:39:05;0.70;;;0.70;;
1358;SDS011;673;48.098;14.422;2022-07-06T10:41:46;0.63;;;0.63;;
1358;SDS011;673;48.098;14.422;2022-07-06T10:44:19;0.60;;;0.60;;
1358;SDS011;673;48.098;14.422;2022-07-06T10:46:51;0.80;;;0.80;;
1358;SDS011;673;48.098;14.422;2022-07-06T10:49:19;1.10;;;0.60;;
1358;SDS011;673;48.098;14.422;2022-07-06T10:51:47;0.90;;;0.70;;
1358;SDS011;673;48.098;14.422;2022-07-06T10:54:16;0.60;;;0.60;;
1358;SDS011;673;48.098;14.422;2022-07-06T10:56:44;0.90;;;0.70;;
1358;SDS011;673;48.098;14.422;2022-07-06T10:59:12;0.60;;;0.60;;
1358;SDS011;673;48.098;14.422;2022-07-06T11:01:41;0.70;;;0.70;;
1358;SDS011;673;48.098;14.422;2022-07-06T11:04:39;0.50;;;0.50;;
1358;SDS011;673;48.098;14.422;2022-07-06T11:07:07;0.70;;;0.70;;
1358;SDS011;673;48.098;14.422;2022-07-06T11:09:35;0.90;;;0.73;;
1358;SDS011;673;48.098;14.422;2022-07-06T11:12:14;1.37;;;0.77;;
1358;SDS011;673;48.098;14.422;2022-07-06T11:14:43;1.13;;;0.67;;
1358;SDS011;673;48.098;14.422;2022-07-06T11:17:13;2.30;;;0.83;;
1358;SDS011;673;48.098;14.422;2022-07-06T11:19:47;1.00;;;0.70;;
1358;SDS011;673;48.098;14.422;2022-07-06T11:22:15;0.90;;;0.70;;
1358;SDS011;673;48.098;14.422;2022-07-06T11:24:45;0.67;;;0.60;;
1358;SDS011;673;48.098;14.422;2022-07-06T11:27:12;1.20;;;0.90;;
1358;SDS011;673;48.098;14.422;2022-07-06T11:29:39;0.60;;;0.60;;
1358;SDS011;673;48.098;14.422;2022-07-06T11:32:08;1.27;;;1.17;;
1358;SDS011;673;48.098;14.422;2022-07-06T11:34:38;0.80;;;0.70;;
1358;SDS011;673;48.098;14.422;2022-07-06T11:37:08;0.50;;;0.50;;
1358;SDS011;673;48.098;14.422;2022-07-06T11:39:36;0.57;;;0.57;;
1358;SDS011;673;48.098;14.422;2022-07-06T11:42:06;0.87;;;0.60;;
1358;SDS011;673;48.098;14.422;2022-07-06T11:44:33;0.60;;;0.60;;
1358;SDS011;673;48.098;14.422;2022-07-06T11:47:02;0.97;;;0.60;;
1358;SDS011;673;48.098;14.422;2022-07-06T11:49:29;0.70;;;0.70;;
1358;SDS011;673;48.098;14.422;2022-07-06T11:51:59;0.70;;;0.50;;
1358;SDS011;673;48.098;14.422;2022-07-06T11:54:26;3.63;;;0.70;;
1358;SDS011;673;48.098;14.422;2022-07-06T11:56:54;0.70;;;0.70;;
1358;SDS011;673;48.098;14.422;2022-07-06T11:59:24;0.67;;;0.67;;
1358;SDS011;673;48.098;14.422;2022-07-06T12:01:57;0.60;;;0.60;;
1358;SDS011;673;48.098;14.422;2022-07-06T12:04:25;0.60;;;0.60;;
1358;SDS011;673;48.098;14.422;2022-07-06T12:06:52;0.90;;;0.70;;
1358;SDS011;673;48.098;14.422;2022-07-06T12:09:21;1.10;;;0.80;;
1358;SDS011;673;48.098;14.422;2022-07-06T12:11:48;0.50;;;0.40;;
1358;SDS011;673;48.098;14.422;2022-07-06T12:14:16;0.90;;;0.60;;
1358;SDS011;673;48.098;14.422;2022-07-06T12:16:45;0.63;;;0.63;;
1358;SDS011;673;48.098;14.422;2022-07-06T12:19:14;0.70;;;0.70;;
1358;SDS011;673;48.098;14.422;2022-07-06T12:21:42;0.60;;;0.60;;
1358;SDS011;673;48.098;14.422;2022-07-06T12:24:10;0.60;;;0.60;;
1358;SDS011;673;48.098;14.422;2022-07-06T12:26:44;0.60;;;0.50;;
1358;SDS011;673;48.098;14.422;2022-07-06T12:29:11;1.00;;;0.80;;
1358;SDS011;673;48.098;14.422;2022-07-06T12:31:39;1.27;;;1.17;;
1358;SDS011;673;48.098;14.422;2022-07-06T12:34:12;0.80;;;0.80;;
1358;SDS011;673;48.098;14.422;2022-07-06T12:36:43;0.70;;;0.60;;
1358;SDS011;673;48.098;14.422;2022-07-06T12:39:11;2.80;;;0.50;;
1358;SDS011;673;48.098;14.422;2022-07-06T12:41:44;0.60;;;0.60;;
1358;SDS011;673;48.098;14.422;2022-07-06T12:44:13;0.80;;;0.80;;
1358;SDS011;673;48.098;14.422;2022-07-06T12:46:42;0.53;;;0.53;;
1358;SDS011;673;48.098;14.422;2022-07-06T12:49:15;1.43;;;1.33;;
1358;SDS011;673;48.098;14.422;2022-07-06T12:51:48;1.90;;;0.63;;
1358;SDS011;673;48.098;14.422;2022-07-06T12:54:19;0.60;;;0.60;;
1358;SDS011;673;48.098;14.422;2022-07-06T12:59:41;0.70;;;0.70;;
1358;SDS011;673;48.098;14.422;2022-07-06T13:02:18;1.53;;;0.63;;
1358;SDS011;673;48.098;14.422;2022-07-06T13:04:54;0.63;;;0.63;;
1358;SDS011;673;48.098;14.422;2022-07-06T13:07:23;0.87;;;0.70;;
1358;SDS011;673;48.098;14.422;2022-07-06T13:09:51;0.60;;;0.60;;
1358;SDS011;673;48.098;14.422;2022-07-06T13:12:20;0.87;;;0.50;;
1358;SDS011;673;48.098;14.422;2022-07-06T13:14:48;1.10;;;0.67;;
1358;SDS011;673;48.098;14.422;2022-07-06T13:17:15;0.80;;;0.80;;
1358;SDS011;673;48.098;14.422;2022-07-06T13:19:42;1.80;;;1.43;;
1358;SDS011;673;48.098;14.422;2022-07-06T13:22:09;1.77;;;0.67;;
1358;SDS011;673;48.098;14.422;2022-07-06T13:24:36;1.27;;;0.60;;
1358;SDS011;673;48.098;14.422;2022-07-06T13:27:04;0.90;;;0.70;;
1358;SDS011;673;48.098;14.422;2022-07-06T13:29:32;2.30;;;0.70;;
1358;SDS011;673;48.098;14.422;2022-07-06T13:31:59;0.70;;;0.70;;
1358;SDS011;673;48.098;14.422;2022-07-06T13:34:26;0.80;;;0.70;;
1358;SDS011;673;48.098;14.422;2022-07-06T13:36:54;0.83;;;0.73;;
1358;SDS011;673;48.098;14.422;2022-07-06T13:39:21;2.80;;;0.87;;
1358;SDS011;673;48.098;14.422;2022-07-06T13:41:48;0.70;;;0.70;;
1358;SDS011;673;48.098;14.422;2022-07-06T13:44:15;1.33;;;0.70;;
1358;SDS011;673;48.098;14.422;2022-07-06T13:46:43;0.70;;;0.70;;
1358;SDS011;673;48.098;14.422;2022-07-06T13:49:10;0.70;;;0.70;;
1358;SDS011;673;48.098;14.422;2022-07-06T13:51:38;1.00;;;0.60;;
1358;SDS011;673;48.098;14.422;2022-07-06T13:54:05;0.50;;;0.50;;
1358;SDS011;673;48.098;14.422;2022-07-06T13:56:32;0.70;;;0.70;;
1358;SDS011;673;48.098;14.422;2022-07-06T13:59:01;0.70;;;0.70;;
1358;SDS011;673;48.098;14.422;2022-07-06T14:01:28;0.67;;;0.67;;
1358;SDS011;673;48.098;14.422;2022-07-06T14:03:56;0.60;;;0.60;;
1358;SDS011;673;48.098;14.422;2022-07-06T14:06:23;1.03;;;0.80;;
1358;SDS011;673;48.098;14.422;2022-07-06T14:08:50;2.50;;;0.73;;
1358;SDS011;673;48.098;14.422;2022-07-06T14:11:17;0.60;;;0.60;;
1358;SDS011;673;48.098;14.422;2022-07-06T14:13:44;0.73;;;0.73;;
1358;SDS011;673;48.098;14.422;2022-07-06T14:16:11;1.07;;;0.67;;
1358;SDS011;673;48.098;14.422;2022-07-06T14:18:38;0.70;;;0.70;;
1358;SDS011;673;48.098;14.422;2022-07-06T14:21:07;0.60;;;0.60;;
1358;SDS011;673;48.098;14.422;2022-07-06T14:23:34;6.17;;;1.27;;
1358;SDS011;673;48.098;14.422;2022-07-06T14:26:01;0.80;;;0.70;;
1358;SDS011;673;48.098;14.422;2022-07-06T14:28:28;0.90;;;0.90;;
1358;SDS011;673;48.098;14.422;2022-07-06T14:30:55;1.07;;;0.83;;
1358;SDS011;673;48.098;14.422;2022-07-06T14:33:22;0.60;;;0.60;;
1358;SDS011;673;48.098;14.422;2022-07-06T14:35:49;4.53;;;0.80;;
1358;SDS011;673;48.098;14.422;2022-07-06T14:38:18;1.43;;;0.90;;
1358;SDS011;673;48.098;14.422;2022-07-06T14:40:46;0.80;;;0.80;;
1358;SDS011;673;48.098;14.422;2022-07-06T14:43:16;0.50;;;0.50;;
1358;SDS011;673;48.098;14.422;2022-07-06T14:45:43;0.90;;;0.80;;
1358;SDS011;673;48.098;14.422;2022-07-06T14:48:11;2.70;;;0.80;;
1358;SDS011;673;48.098;14.422;2022-07-06T14:50:38;0.70;;;0.70;;
1358;SDS011;673;48.098;14.422;2022-07-06T14:53:05;1.37;;;0.90;;
1358;SDS011;673;48.098;14.422;2022-07-06T14:55:34;2.00;;;0.80;;
1358;SDS011;673;48.098;14.422;2022-07-06T14:58:01;1.07;;;0.70;;
1358;SDS011;673;48.098;14.422;2022-07-06T15:00:28;1.37;;;0.60;;
1358;SDS011;673;48.098;14.422;2022-07-06T15:02:55;0.70;;;0.70;;
1358;SDS011;673;48.098;14.422;2022-07-06T15:05:22;0.80;;;0.70;;
1358;SDS011;673;48.098;14.422;2022-07-06T15:07:50;0.90;;;0.90;;
1358;SDS011;673;48.098;14.422;2022-07-06T15:10:17;3.07;;;0.77;;
1358;SDS011;673;48.098;14.422;2022-07-06T15:12:45;0.80;;;0.80;;
1358;SDS011;673;48.098;14.422;2022-07-06T15:15:12;0.70;;;0.67;;
1358;SDS011;673;48.098;14.422;2022-07-06T15:17:39;1.63;;;0.60;;
1358;SDS011;673;48.098;14.422;2022-07-06T15:20:06;0.70;;;0.70;;
1358;SDS011;673;48.098;14.422;2022-07-06T15:22:34;0.67;;;0.67;;